Time;durP1;ratioP1;P1;durP2;ratioP2;P2;SDS_P1;SDS_P2;PMS_P1;PMS_P2;Temp;Humidity;BMP_temperature;BMP_pressure;BME280_temperature;BME280_humidity;BME280_pressure;Samples;Min_cycle;Max_cycle;Signal;HPM_P1;HPM_P2
2022/01/03 00:01:36;;;;;;;12.00;8.30;;;;;;;2.56;76.89;95214.09;5111616;28;20028;-75
2022/01/03 00:04:01;;;;;;;11.43;8.68;;;;;;;2.37;76.31;95210.72;5093555;28;20043;-76
2022/01/03 00:06:26;;;;;;;23.83;16.58;;;;;;;2.26;78.66;95211.22;5118934;28;20034;-74
2022/01/03 00:08:52;;;;;;;14.40;10.75;;;;;;;2.25;76.95;95199.25;5109394;28;20024;-75
2022/01/03 00:11:19;;;;;;;12.85;9.35;;;;;;;2.20;77.43;95199.50;5093432;28;20107;-75
2022/01/03 00:13:45;;;;;;;12.77;8.60;;;;;;;2.26;77.10;95194.97;5076492;28;20085;-75
2022/01/03 00:16:11;;;;;;;16.85;9.45;;;;;;;2.17;77.39;95194.50;5111394;28;20035;-76
2022/01/03 00:18:37;;;;;;;11.93;8.35;;;;;;;2.26;77.26;95189.84;5113486;28;20035;-75
2022/01/03 00:21:03;;;;;;;14.73;9.65;;;;;;;1.96;77.75;95185.16;5113666;28;20113;-77
2022/01/03 00:23:29;;;;;;;16.75;10.20;;;;;;;1.88;77.28;95177.81;5092519;28;20465;-76
2022/01/03 00:26:01;;;;;;;16.15;10.95;;;;;;;1.42;78.11;95130.25;5093411;28;20024;-76
2022/01/03 00:28:35;;;;;;;17.10;10.32;;;;;;;1.83;77.13;95172.03;5076170;28;20036;-76
2022/01/03 00:31:01;;;;;;;16.73;11.25;;;;;;;1.74;77.87;95175.84;5110708;28;20425;-76
2022/01/03 00:33:26;;;;;;;15.90;10.20;;;;;;;1.80;77.62;95172.19;5076480;28;20028;-76
2022/01/03 00:35:59;;;;;;;13.38;9.75;;;;;;;1.64;78.49;95141.25;5096788;28;20081;-76
2022/01/03 00:38:27;;;;;;;13.93;9.27;;;;;;;1.82;77.06;95154.19;5094005;28;20036;-76
2022/01/03 00:40:53;;;;;;;15.85;9.32;;;;;;;1.61;77.07;95146.50;5102471;28;20020;-76
2022/01/03 00:43:18;;;;;;;14.82;9.55;;;;;;;1.68;77.38;95145.38;5093112;28;20036;-76
2022/01/03 00:45:44;;;;;;;15.57;9.10;;;;;;;1.58;77.52;95156.06;5093343;28;20034;-76
2022/01/03 00:48:10;;;;;;;14.73;9.63;;;;;;;1.45;78.35;95151.47;5109916;28;20032;-76
2022/01/03 00:50:35;;;;;;;14.02;9.40;;;;;;;1.44;77.71;95148.97;5092789;28;20545;-76
2022/01/03 00:53:01;;;;;;;15.30;10.35;;;;;;;1.42;78.80;95158.41;5093074;28;20043;-75
2022/01/03 00:55:26;;;;;;;17.20;11.07;;;;;;;1.40;78.41;95157.66;5093064;28;20036;-76
2022/01/03 00:58:10;;;;;;;16.80;10.75;;;;;;;1.41;79.10;95184.94;5092747;28;20387;-76
2022/01/03 01:00:38;;;;;;;16.63;10.48;;;;;;;1.39;78.38;95197.78;5096257;28;20036;-75
2022/01/03 01:03:19;;;;;;;18.52;11.15;;;;;;;1.34;80.94;95174.94;5096383;28;20052;-76
2022/01/03 01:05:49;;;;;;;30.90;20.05;;;;;;;1.45;83.52;95140.38;5113586;28;20106;-75
2022/01/03 01:08:19;;;;;;;18.75;12.15;;;;;;;1.61;82.24;95143.94;5096880;28;20031;-74
2022/01/03 01:10:45;;;;;;;17.60;10.27;;;;;;;1.72;80.48;95152.00;5096332;28;20035;-75
2022/01/03 01:13:11;;;;;;;15.98;10.15;;;;;;;1.78;80.07;95131.28;5113064;28;20027;-74
2022/01/03 01:15:37;;;;;;;15.05;9.13;;;;;;;1.93;79.57;95116.94;5112873;28;20038;-74
2022/01/03 01:18:04;;;;;;;12.20;8.60;;;;;;;2.09;80.15;95117.09;5114226;28;20031;-74
2022/01/03 01:20:29;;;;;;;11.68;8.18;;;;;;;2.19;79.40;95108.09;5132314;27;20451;-74
2022/01/03 01:22:55;;;;;;;14.02;9.23;;;;;;;2.03;77.72;95116.53;5099330;27;20100;-75
2022/01/03 01:27:47;;;;;;;12.38;8.93;;;;;;;2.15;78.42;95116.81;5133405;27;20035;-75
2022/01/03 01:30:20;;;;;;;13.45;8.68;;;;;;;2.29;78.71;95123.06;5134599;27;20043;-75
2022/01/03 01:33:02;;;;;;;17.15;10.35;;;;;;;1.97;78.36;95099.69;5117438;27;20027;-75
2022/01/03 01:35:46;;;;;;;13.65;9.05;;;;;;;2.16;77.95;95121.03;5100011;27;20049;-75
2022/01/03 01:38:13;;;;;;;16.02;9.77;;;;;;;2.04;77.55;95128.47;5100055;27;20038;-75
2022/01/03 01:40:47;;;;;;;14.95;10.13;;;;;;;2.00;78.07;95122.63;5126173;27;20065;-74
2022/01/03 01:43:13;;;;;;;14.05;10.13;;;;;;;2.06;77.56;95122.34;5113962;28;20443;-75
2022/01/03 01:45:40;;;;;;;16.08;9.93;;;;;;;2.15;80.02;95114.25;5112794;28;20031;-75
2022/01/03 01:48:05;;;;;;;13.00;9.25;;;;;;;2.35;80.53;95127.91;5112637;28;20031;-74
2022/01/03 01:50:31;;;;;;;14.43;10.25;;;;;;;2.34;79.04;95118.53;5106450;28;20028;-75
2022/01/03 01:52:56;;;;;;;15.68;9.85;;;;;;;2.08;77.82;95118.00;5095508;28;20546;-75
2022/01/03 01:55:22;;;;;;;17.90;11.10;;;;;;;1.99;77.26;95124.34;5095357;28;20073;-75
2022/01/03 01:58:02;;;;;;;17.40;11.55;;;;;;;1.72;78.40;95113.59;5079066;27;20016;-75
2022/01/03 02:00:27;;;;;;;15.90;10.93;;;;;;;1.91;79.20;95113.63;5113382;27;20027;-74
2022/01/03 02:02:53;;;;;;;15.10;10.18;;;;;;;2.00;78.59;95113.19;5078455;28;20027;-74
2022/01/03 02:05:25;;;;;;;13.77;9.63;;;;;;;1.91;78.94;95111.06;5113673;28;20032;-74
2022/01/03 02:08:09;;;;;;;13.50;9.88;;;;;;;1.96;77.87;95116.81;5113078;27;20012;-75
2022/01/03 02:10:40;;;;;;;18.50;10.48;;;;;;;1.30;78.54;95075.28;5112919;28;20448;-75
2022/01/03 02:13:06;;;;;;;14.55;9.70;;;;;;;1.63;78.61;95096.06;5095970;28;20027;-76
2022/01/03 02:15:32;;;;;;;19.35;10.25;;;;;;;1.64;77.89;95102.00;5111693;28;20038;-76
2022/01/03 02:17:57;;;;;;;14.27;9.77;;;;;;;1.60;78.03;95090.25;5112004;28;20035;-76
2022/01/03 02:20:26;;;;;;;13.13;8.88;;;;;;;1.67;77.29;95105.28;5078019;28;20038;-76
2022/01/03 02:22:51;;;;;;;15.50;9.63;;;;;;;1.32;79.17;95068.38;5095382;28;20023;-75
2022/01/03 02:25:18;;;;;;;18.17;10.77;;;;;;;1.44;79.08;95046.53;5094687;28;20100;-76
2022/01/03 02:27:43;;;;;;;16.13;11.43;;;;;;;1.67;80.49;95063.47;5112804;27;20035;-76
2022/01/03 02:30:11;;;;;;;17.90;11.35;;;;;;;1.90;83.27;95055.59;5094665;28;20069;-76
2022/01/03 02:32:37;;;;;;;16.50;11.57;;;;;;;2.01;82.68;95047.44;5078067;28;20027;-76
2022/01/03 02:35:03;;;;;;;15.07;10.02;;;;;;;2.20;82.85;95042.25;5115049;27;20037;-76
2022/01/03 02:37:28;;;;;;;16.38;10.65;;;;;;;2.34;82.18;95039.91;5098195;27;20031;-76
2022/01/03 02:39:54;;;;;;;17.80;9.95;;;;;;;2.41;80.99;95043.00;5097651;27;20489;-76
2022/01/03 02:42:23;;;;;;;19.30;11.68;;;;;;;2.49;82.14;95045.22;5110279;28;20423;-76
2022/01/03 02:45:10;;;;;;;16.38;11.15;;;;;;;2.73;79.26;95043.19;5094870;28;20029;-75
2022/01/03 02:47:36;;;;;;;32.97;22.15;;;;;;;2.71;78.28;95048.41;5112312;28;20036;-76
2022/01/03 02:50:02;;;;;;;33.25;21.15;;;;;;;2.52;78.23;95032.25;5111529;28;20035;-76
2022/01/03 02:52:27;;;;;;;25.08;15.80;;;;;;;2.39;78.61;95057.63;5111646;28;20038;-76
2022/01/03 02:54:53;;;;;;;28.65;19.33;;;;;;;2.34;79.28;95059.56;5106280;28;20028;-76
2022/01/03 02:57:23;;;;;;;28.42;18.85;;;;;;;2.13;79.01;95057.09;5111021;28;20023;-76
2022/01/03 02:59:55;;;;;;;20.20;13.38;;;;;;;2.18;79.74;95059.47;5078805;28;20040;-76
2022/01/03 03:02:22;;;;;;;19.92;13.43;;;;;;;2.18;80.07;95044.09;5094283;28;20119;-76
2022/01/03 03:04:58;;;;;;;17.65;12.68;;;;;;;2.13;78.97;95049.41;5078534;28;20047;-75
2022/01/03 03:07:25;;;;;;;21.17;12.18;;;;;;;2.06;79.25;95040.34;5077602;28;20031;-77
2022/01/03 03:09:50;;;;;;;16.83;10.23;;;;;;;2.18;79.43;95044.91;5110788;28;20039;-75
2022/01/03 03:12:15;;;;;;;15.18;10.55;;;;;;;2.12;78.81;95024.69;5112310;28;20024;-75
2022/01/03 03:14:41;;;;;;;14.93;9.75;;;;;;;1.99;78.68;95033.84;5084839;27;20099;-75
2022/01/03 03:17:06;;;;;;;14.95;10.23;;;;;;;1.92;79.34;95012.81;5118669;27;20082;-75
2022/01/03 03:19:32;;;;;;;15.20;9.65;;;;;;;2.03;79.17;95029.41;5111607;27;20047;-75
2022/01/03 03:21:57;;;;;;;14.63;9.27;;;;;;;2.04;78.28;95005.47;5110056;28;20019;-75
2022/01/03 03:24:23;;;;;;;17.67;11.13;;;;;;;1.57;79.39;95037.44;5093938;28;20038;-75
2022/01/03 03:26:48;;;;;;;16.95;11.88;;;;;;;1.63;80.69;95037.16;5112036;27;20497;-75
2022/01/03 03:29:14;;;;;;;18.90;13.68;;;;;;;1.65;80.70;95043.06;5112266;28;20104;-75
2022/01/03 03:31:39;;;;;;;19.25;12.18;;;;;;;1.70;80.68;95053.06;5093806;28;20498;-75
2022/01/03 03:34:05;;;;;;;30.65;18.33;;;;;;;1.71;80.48;95037.66;5097944;28;20028;-75
2022/01/03 03:36:31;;;;;;;19.33;14.18;;;;;;;1.90;80.70;95035.09;5093187;28;20493;-75
2022/01/03 03:38:56;;;;;;;21.70;14.88;;;;;;;1.82;79.94;95042.28;5110752;28;20126;-75
2022/01/03 03:41:22;;;;;;;20.17;14.38;;;;;;;1.92;79.68;95058.06;5093734;28;20032;-75
2022/01/03 03:43:47;;;;;;;21.48;13.55;;;;;;;1.87;80.40;95039.53;5110547;28;20038;-75
2022/01/03 03:46:13;;;;;;;17.30;12.07;;;;;;;1.93;79.65;95034.13;5093431;28;20508;-75
2022/01/03 03:48:39;;;;;;;17.58;11.13;;;;;;;1.99;80.64;95026.16;5111983;28;20481;-75
2022/01/03 03:51:04;;;;;;;16.75;10.60;;;;;;;2.05;80.10;95023.31;5093700;28;20020;-75
2022/01/03 03:53:30;;;;;;;28.90;17.95;;;;;;;2.06;79.49;95019.00;5094465;28;20060;-75
2022/01/03 03:55:55;;;;;;;21.13;13.57;;;;;;;1.59;80.60;95034.78;5093213;28;20413;-74
2022/01/03 03:58:21;;;;;;;19.88;13.65;;;;;;;1.84;80.23;95043.06;5093512;28;20046;-74
2022/01/03 04:00:46;;;;;;;25.45;16.13;;;;;;;1.72;80.29;95034.19;5111766;28;20485;-75
2022/01/03 04:03:12;;;;;;;27.27;17.92;;;;;;;1.87;80.35;95027.56;5104249;28;20032;-75
2022/01/03 04:05:37;;;;;;;30.40;16.83;;;;;;;1.78;80.34;95016.00;5131133;27;20420;-76
2022/01/03 04:08:03;;;;;;;23.40;15.27;;;;;;;1.80;79.92;95015.91;5110046;28;20425;-76
2022/01/03 04:10:28;;;;;;;21.75;13.15;;;;;;;1.93;79.24;95023.88;5110447;28;20499;-76
2022/01/03 04:12:54;;;;;;;19.05;14.15;;;;;;;1.92;79.66;95017.94;5093374;28;20547;-76
2022/01/03 04:15:19;;;;;;;17.42;11.63;;;;;;;1.84;80.28;95014.88;5093175;28;20451;-76
2022/01/03 04:17:44;;;;;;;16.60;11.65;;;;;;;1.63;80.03;95016.66;5076462;28;20039;-76
2022/01/03 04:20:12;;;;;;;16.90;9.73;;;;;;;1.67;79.29;95020.78;5110188;28;20027;-76
2022/01/03 04:22:37;;;;;;;14.77;10.45;;;;;;;1.74;79.56;95032.38;5103200;28;20417;-76
2022/01/03 04:25:03;;;;;;;18.70;10.55;;;;;;;1.77;79.31;95034.81;5092866;28;20030;-75
2022/01/03 04:27:29;;;;;;;36.47;21.15;;;;;;;1.28;80.43;95047.22;5093273;28;20028;-76
2022/01/03 04:29:54;;;;;;;50.08;26.13;;;;;;;1.37;80.75;95047.72;5094911;28;20048;-76
2022/01/03 04:32:20;;;;;;;30.20;18.05;;;;;;;1.43;80.98;95035.47;5111696;28;20080;-76
2022/01/03 04:34:45;;;;;;;21.30;13.63;;;;;;;1.53;80.85;95033.31;5097367;28;20040;-76
2022/01/03 04:37:13;;;;;;;21.67;13.10;;;;;;;1.46;80.32;95021.72;5080293;28;20027;-76
2022/01/03 04:39:39;;;;;;;20.75;12.02;;;;;;;1.54;79.87;95017.09;5097515;28;20036;-76
2022/01/03 04:42:04;;;;;;;18.25;11.52;;;;;;;1.62;79.72;95024.44;5097210;28;20034;-75
2022/01/03 04:44:31;;;;;;;20.05;12.20;;;;;;;1.60;79.77;95032.16;5113793;28;20039;-75
2022/01/03 04:46:56;;;;;;;16.58;11.55;;;;;;;1.51;79.95;95006.97;5113913;28;20077;-75
2022/01/03 04:49:22;;;;;;;15.57;10.35;;;;;;;1.67;80.08;95022.47;5096607;28;20028;-75
2022/01/03 04:51:47;;;;;;;13.63;9.98;;;;;;;1.67;80.03;95028.47;5127376;27;20027;-75
2022/01/03 04:54:12;;;;;;;20.73;12.55;;;;;;;1.59;78.64;95045.88;5116990;27;20037;-75
2022/01/03 04:56:38;;;;;;;37.45;24.02;;;;;;;1.41;79.65;95047.50;5134166;27;20034;-75
2022/01/03 04:59:03;;;;;;;27.85;20.27;;;;;;;1.53;80.45;95056.38;5133068;27;20481;-75
2022/01/03 05:01:29;;;;;;;25.23;18.77;;;;;;;1.50;79.54;95053.94;5096136;28;20477;-75
2022/01/03 05:03:54;;;;;;;21.73;12.02;;;;;;;1.32;79.04;95028.25;5096647;28;20031;-76
2022/01/03 05:06:20;;;;;;;16.88;11.38;;;;;;;1.48;79.55;95060.88;5113302;28;20153;-76
2022/01/03 05:08:45;;;;;;;17.08;11.35;;;;;;;1.50;78.68;95066.75;5114384;27;20023;-76
2022/01/03 05:11:11;;;;;;;19.85;12.75;;;;;;;1.40;79.47;95066.34;5133307;27;20027;-75
2022/01/03 05:13:36;;;;;;;18.85;12.50;;;;;;;1.38;79.05;95068.13;5099723;27;20058;-75
2022/01/03 05:16:02;;;;;;;20.25;13.50;;;;;;;1.46;78.72;95071.19;5116502;27;20031;-75
2022/01/03 05:18:27;;;;;;;22.30;14.30;;;;;;;1.45;81.28;95040.50;5120654;27;20036;-75
2022/01/03 05:20:53;;;;;;;24.13;16.15;;;;;;;1.70;81.98;95053.06;5095940;28;20054;-75
2022/01/03 05:23:18;;;;;;;19.15;12.02;;;;;;;1.78;81.05;95053.56;5079027;28;20031;-76
2022/01/03 05:25:44;;;;;;;15.40;10.32;;;;;;;1.85;81.57;95051.56;5079095;28;20027;-75
2022/01/03 05:28:10;;;;;;;15.77;10.25;;;;;;;1.82;80.60;95036.34;5095257;28;20473;-76
2022/01/03 05:30:35;;;;;;;13.88;9.52;;;;;;;1.99;80.73;95038.97;5112405;28;20043;-75
2022/01/03 05:33:01;;;;;;;16.35;10.85;;;;;;;2.12;79.65;95031.56;5095892;28;20500;-75
2022/01/03 05:35:26;;;;;;;17.52;10.05;;;;;;;2.17;79.27;95033.00;5112272;28;20110;-75
2022/01/03 05:37:52;;;;;;;14.82;10.98;;;;;;;2.17;79.28;95037.28;5126243;27;20110;-75
2022/01/03 05:40:17;;;;;;;16.02;10.15;;;;;;;2.21;79.64;95049.91;5132992;27;20054;-75
2022/01/03 05:42:44;;;;;;;20.77;14.07;;;;;;;1.63;79.95;95049.97;5134520;27;20019;-75
2022/01/03 05:45:09;;;;;;;20.25;11.43;;;;;;;1.52;82.07;95022.25;5115154;27;20100;-75
2022/01/03 05:47:35;;;;;;;20.00;12.13;;;;;;;1.75;81.62;95034.03;5098965;27;20481;-76
2022/01/03 05:50:00;;;;;;;16.13;9.85;;;;;;;1.83;80.39;95009.81;5134037;27;20038;-76
2022/01/03 05:52:26;;;;;;;13.02;8.95;;;;;;;1.88;79.44;95021.53;5099303;27;20508;-75
2022/01/03 05:54:52;;;;;;;12.75;9.27;;;;;;;1.93;79.45;95032.38;5115491;27;20039;-76
2022/01/03 05:57:18;;;;;;;14.30;10.13;;;;;;;1.27;79.62;95019.94;5096910;27;20507;-76
2022/01/03 05:59:43;;;;;;;16.25;11.10;;;;;;;1.26;80.36;95025.97;5115838;27;20027;-75
2022/01/03 06:02:09;;;;;;;22.45;16.77;;;;;;;1.37;81.76;95037.47;5111809;28;20043;-75
2022/01/03 06:05:10;;;;;;;16.70;11.77;;;;;;;1.56;80.53;95046.00;5079404;27;20028;-75
2022/01/03 06:07:26;;;;;;;14.25;10.25;;;;;;;1.40;79.10;95025.38;5111126;28;20048;-75
2022/01/03 06:09:51;;;;;;;12.90;9.50;;;;;;;1.51;79.65;95042.81;5112422;28;20065;-75
2022/01/03 06:12:17;;;;;;;14.88;9.35;;;;;;;1.59;78.58;95038.22;5113762;28;20032;-76
2022/01/03 06:14:44;;;;;;;14.23;9.05;;;;;;;1.51;79.00;95042.81;5113077;28;20104;-75
2022/01/03 06:17:09;;;;;;;15.32;8.60;;;;;;;1.49;79.39;95049.75;5128291;27;20382;-76
2022/01/03 06:19:35;;;;;;;13.93;9.18;;;;;;;1.49;78.79;95045.44;5133019;27;20088;-76
2022/01/03 06:22:02;;;;;;;13.50;8.63;;;;;;;1.41;79.02;95044.13;5131566;27;20019;-76
2022/01/03 06:24:27;;;;;;;15.25;9.50;;;;;;;1.20;78.83;95053.53;5097409;27;20031;-75
2022/01/03 06:26:53;;;;;;;17.65;10.45;;;;;;;0.86;80.59;95058.34;5113301;27;20050;-75
2022/01/03 06:29:19;;;;;;;14.75;10.30;;;;;;;1.03;80.04;95038.88;5126088;27;20030;-76
2022/01/03 06:31:45;;;;;;;16.00;10.35;;;;;;;1.11;79.63;95047.94;5117478;27;20039;-76
2022/01/03 06:34:11;;;;;;;23.83;12.95;;;;;;;1.27;79.79;95071.13;5130464;27;20062;-76
2022/01/03 06:36:36;;;;;;;18.25;10.75;;;;;;;1.10;80.65;95055.66;5107324;27;20074;-76
2022/01/03 06:39:02;;;;;;;26.15;14.90;;;;;;;1.24;80.56;95067.88;5109004;27;20066;-76
2022/01/03 06:41:28;;;;;;;17.63;10.60;;;;;;;1.28;81.00;95064.28;5137390;27;20092;-77
2022/01/03 06:43:53;;;;;;;13.00;8.85;;;;;;;1.33;80.19;95070.88;5093695;27;20497;-76
2022/01/03 06:46:19;;;;;;;13.75;9.20;;;;;;;1.17;80.25;95067.31;5088493;27;20038;-76
2022/01/03 06:48:46;;;;;;;13.70;8.80;;;;;;;1.33;80.20;95064.91;5113028;27;20409;-76
2022/01/03 06:51:14;;;;;;;11.93;8.13;;;;;;;1.38;79.77;95047.63;5122635;27;20031;-77
2022/01/03 06:53:40;;;;;;;13.00;8.20;;;;;;;1.41;79.66;95055.19;5096628;27;20027;-76
2022/01/03 06:56:05;;;;;;;13.60;8.85;;;;;;;1.45;79.85;95056.72;5124892;27;20083;-76
2022/01/03 06:58:31;;;;;;;14.25;8.43;;;;;;;1.45;80.02;95043.06;5107400;27;20497;-76
2022/01/03 07:00:57;;;;;;;15.00;9.68;;;;;;;1.63;79.38;95047.41;5109618;28;20039;-76
2022/01/03 07:03:22;;;;;;;14.60;8.50;;;;;;;1.60;79.74;95039.03;5125090;27;20046;-76
2022/01/03 07:05:48;;;;;;;21.80;12.27;;;;;;;1.68;80.70;95032.66;5107745;27;20030;-76
2022/01/03 07:08:13;;;;;;;20.88;11.00;;;;;;;1.75;79.81;95044.28;5108710;28;20039;-76
2022/01/03 07:10:39;;;;;;;21.05;10.60;;;;;;;1.86;80.31;95048.09;5122438;27;20038;-75
2022/01/03 07:13:04;;;;;;;17.48;9.13;;;;;;;1.56;79.65;95048.56;5131725;27;20035;-75
2022/01/03 07:20:58;;;;;;;58.80;39.03;;;;;;;1.50;81.05;95046.28;5130035;27;20081;-74
2022/01/03 07:23:23;;;;;;;50.45;34.17;;;;;;;1.57;80.80;95040.00;5113613;27;20027;-77
2022/01/03 07:25:49;;;;;;;62.60;39.17;;;;;;;1.67;80.63;95048.94;5101977;27;20038;-77
2022/01/03 07:28:14;;;;;;;39.70;27.38;;;;;;;1.71;80.63;95029.13;5108487;27;20019;-74
2022/01/03 07:30:40;;;;;;;23.00;15.00;;;;;;;1.81;79.93;95040.63;5135122;27;20484;-75
2022/01/03 07:33:05;;;;;;;24.83;15.27;;;;;;;1.88;80.04;95036.06;5121531;27;20076;-76
2022/01/03 07:35:31;;;;;;;14.45;9.95;;;;;;;1.76;80.71;95027.22;5113224;27;20044;-74
2022/01/03 07:37:58;;;;;;;14.27;9.80;;;;;;;1.84;81.01;95004.63;5124145;27;20042;-75
2022/01/03 07:40:23;;;;;;;14.27;10.23;;;;;;;1.79;80.84;94984.34;5120401;27;20043;-76
2022/01/03 07:42:49;;;;;;;15.60;10.88;;;;;;;1.95;80.14;95001.56;5117295;27;20420;-77
2022/01/03 07:45:14;;;;;;;21.15;12.30;;;;;;;1.95;80.65;95014.38;5107979;28;20031;-77
2022/01/03 07:47:40;;;;;;;17.48;12.02;;;;;;;1.53;82.70;95010.28;5102490;28;20023;-76
2022/01/03 07:50:06;;;;;;;26.95;18.15;;;;;;;1.78;82.92;95015.13;5107026;27;20470;-79
2022/01/03 07:52:32;;;;;;;51.60;34.05;;;;;;;1.66;83.47;95031.91;5107224;28;20111;-75
2022/01/03 07:54:57;;;;;;;47.30;31.58;;;;;;;2.08;82.52;95024.91;5129358;28;20481;-75
2022/01/03 07:57:22;;;;;;;116.35;70.50;;;;;;;2.19;82.80;95028.63;5117446;28;20035;-76
2022/01/03 07:59:48;;;;;;;118.38;63.90;;;;;;;2.31;82.61;95042.59;5129526;27;20030;-75
2022/01/03 08:02:13;;;;;;;74.57;45.78;;;;;;;2.46;82.28;95044.44;5127651;28;20072;-74
2022/01/03 08:04:39;;;;;;;71.65;44.70;;;;;;;2.71;81.86;95042.44;5094438;28;20074;-74
2022/01/03 08:07:04;;;;;;;52.30;33.92;;;;;;;2.63;81.12;95046.22;5118781;27;20428;-72
2022/01/03 08:09:30;;;;;;;72.93;47.70;;;;;;;2.69;81.52;95032.25;5090132;27;20054;-75
2022/01/03 08:11:55;;;;;;;42.63;26.92;;;;;;;2.90;80.63;95043.22;5133764;27;20023;-75
2022/01/03 08:14:21;;;;;;;42.25;26.63;;;;;;;3.04;80.67;95037.41;5116515;27;20109;-75
2022/01/03 08:16:46;;;;;;;21.63;13.68;;;;;;;3.05;79.46;95046.75;5119092;27;20539;-76
2022/01/03 08:19:12;;;;;;;24.50;15.93;;;;;;;2.83;79.52;94988.78;5134770;27;20050;-76
2022/01/03 08:21:37;;;;;;;33.28;21.08;;;;;;;3.39;79.11;95045.88;5133220;27;20023;-79
2022/01/03 08:24:03;;;;;;;43.75;27.70;;;;;;;3.55;79.23;95028.78;5132158;27;20098;-78
2022/01/03 08:26:29;;;;;;;41.75;27.65;;;;;;;3.71;79.04;95028.00;5133274;27;20112;-74
2022/01/03 08:28:54;;;;;;;48.63;30.98;;;;;;;3.88;77.86;95038.22;5127509;27;20035;-75
2022/01/03 08:31:22;;;;;;;45.45;30.27;;;;;;;3.73;78.34;95027.00;5144772;27;20043;-74
2022/01/03 08:33:47;;;;;;;48.58;30.70;;;;;;;3.70;78.96;94998.06;5132743;27;20035;-76
2022/01/03 08:36:13;;;;;;;36.28;25.25;;;;;;;4.08;77.86;95026.84;5117174;27;20031;-76
2022/01/03 08:38:39;;;;;;;37.35;25.63;;;;;;;4.02;77.59;95004.88;5110623;27;20024;-80
2022/01/03 08:41:05;;;;;;;34.67;24.02;;;;;;;4.33;77.41;95002.38;5107114;28;20501;-87
2022/01/03 08:43:31;;;;;;;33.33;21.13;;;;;;;4.63;76.79;95003.25;5100035;27;20066;-80
2022/01/03 08:45:56;;;;;;;30.25;21.25;;;;;;;4.85;76.71;95018.28;5113228;28;20112;-79
2022/01/03 08:48:22;;;;;;;35.35;20.85;;;;;;;5.03;75.72;95018.16;5116720;27;20042;-80
2022/01/03 08:50:48;;;;;;;28.67;21.25;;;;;;;5.09;75.80;94995.44;5107419;27;20059;-79
2022/01/03 08:53:13;;;;;;;24.65;18.65;;;;;;;5.24;76.85;94993.72;5120738;27;20409;-79
2022/01/03 08:55:40;;;;;;;22.95;16.48;;;;;;;5.15;74.60;94965.91;5121266;27;20512;-76
2022/01/03 08:58:05;;;;;;;21.55;15.00;;;;;;;5.41;73.38;94981.59;5117425;27;20043;-82
2022/01/03 09:00:31;;;;;;;24.02;16.80;;;;;;;5.59;75.28;94970.97;5123011;27;20481;-77
2022/01/03 09:02:56;;;;;;;22.00;16.27;;;;;;;5.65;75.48;94956.06;5122976;27;20470;-80
2022/01/03 09:05:22;;;;;;;19.83;15.02;;;;;;;5.75;76.20;94960.56;5121799;27;20041;-76
2022/01/03 09:07:47;;;;;;;22.30;14.80;;;;;;;5.90;75.31;94957.97;5128042;27;20023;-78
2022/01/03 09:10:13;;;;;;;24.95;16.05;;;;;;;5.89;75.21;94952.00;5125198;27;20076;-80
2022/01/03 09:12:39;;;;;;;20.45;14.80;;;;;;;6.05;75.45;94962.22;5118524;27;20414;-82
2022/01/03 09:15:06;;;;;;;23.70;15.68;;;;;;;6.15;75.07;94955.53;5106670;27;20090;-79
2022/01/03 09:17:31;;;;;;;34.92;23.10;;;;;;;6.30;74.04;94960.69;5149419;27;20027;-77
2022/01/03 09:19:56;;;;;;;56.50;32.13;;;;;;;6.26;72.15;94960.84;5131584;27;20424;-78
2022/01/03 09:22:29;;;;;;;52.08;31.45;;;;;;;6.29;70.70;94948.69;5128383;27;20047;-88
2022/01/03 09:30:05;;;;;;;25.42;16.55;;;;;;;6.86;69.72;94946.66;5132092;27;20066;-74
2022/01/03 09:32:30;;;;;;;30.90;17.67;;;;;;;6.91;70.05;94941.22;5118559;27;20076;-73
2022/01/03 09:34:57;;;;;;;25.15;15.15;;;;;;;7.05;69.40;94948.84;5123586;27;20076;-75
2022/01/03 09:37:23;;;;;;;19.08;13.10;;;;;;;7.23;68.02;94946.78;5133949;27;20671;-74
2022/01/03 09:39:49;;;;;;;22.48;14.48;;;;;;;7.22;68.26;94924.47;5106294;27;20415;-74
2022/01/03 09:42:16;;;;;;;20.38;13.10;;;;;;;7.22;66.27;94926.22;5132014;27;20027;-74
2022/01/03 09:44:41;;;;;;;19.45;12.80;;;;;;;7.32;67.29;94919.50;5113712;27;20038;-74
2022/01/03 09:47:07;;;;;;;25.73;15.55;;;;;;;7.41;67.35;94911.13;5108398;28;20490;-74
2022/01/03 09:49:36;;;;;;;23.63;15.13;;;;;;;7.49;68.17;94908.81;5105694;27;20436;-74
2022/01/03 09:52:06;;;;;;;24.15;14.45;;;;;;;7.40;66.93;94904.28;5090223;27;20100;-73
2022/01/03 09:54:31;;;;;;;23.15;14.20;;;;;;;7.55;66.69;94892.91;5106794;27;20035;-75
2022/01/03 09:57:01;;;;;;;27.77;15.75;;;;;;;7.64;67.23;94900.94;5109688;27;20378;-76
2022/01/03 09:59:27;;;;;;;22.75;15.55;;;;;;;7.66;66.17;94897.31;5080057;27;20064;-73
2022/01/03 10:01:53;;;;;;;22.88;14.23;;;;;;;7.76;65.21;94882.78;5118965;27;20023;-72
2022/01/03 10:04:18;;;;;;;20.83;14.05;;;;;;;7.71;65.13;94876.28;5097925;27;20039;-73
2022/01/03 10:06:44;;;;;;;18.60;13.88;;;;;;;7.59;66.41;94889.16;5110087;27;20522;-73
2022/01/03 10:09:09;;;;;;;23.20;14.55;;;;;;;7.80;65.53;94875.63;5090758;28;20028;-72
2022/01/03 10:11:35;;;;;;;20.55;13.88;;;;;;;7.80;65.84;94863.56;5089483;28;20088;-73
2022/01/03 10:14:00;;;;;;;19.52;13.35;;;;;;;7.95;65.56;94865.97;5109158;27;20054;-72
2022/01/03 10:16:28;;;;;;;22.88;14.75;;;;;;;7.76;66.19;94849.19;5128134;27;20023;-72
2022/01/03 10:18:53;;;;;;;28.30;15.27;;;;;;;7.76;66.01;94856.94;5119208;27;20058;-74
2022/01/03 10:21:47;;;;;;;21.00;14.50;;;;;;;7.63;65.70;94857.91;5116669;27;20042;-72
2022/01/03 10:24:14;;;;;;;22.98;14.85;;;;;;;7.78;65.96;94857.66;5117929;27;20042;-72
2022/01/03 10:26:42;;;;;;;23.67;14.23;;;;;;;7.94;65.11;94844.47;5093917;28;20037;-74
2022/01/03 10:29:21;;;;;;;28.13;16.88;;;;;;;7.64;66.41;94846.66;5106121;27;20061;-73
2022/01/03 10:31:48;;;;;;;29.42;19.88;;;;;;;7.80;66.57;94849.78;5110105;28;20115;-72
2022/01/03 10:34:16;;;;;;;33.95;20.38;;;;;;;7.63;66.52;94806.19;5102431;27;20042;-77
2022/01/03 10:36:42;;;;;;;25.77;17.42;;;;;;;8.00;66.74;94851.78;5105646;27;20419;-75
2022/01/03 10:39:20;;;;;;;36.67;19.17;;;;;;;7.95;67.65;94834.94;5125311;27;20023;-73
2022/01/03 10:41:53;;;;;;;25.27;16.20;;;;;;;8.02;66.71;94831.81;5118553;27;20030;-76
2022/01/03 10:44:29;;;;;;;31.55;18.88;;;;;;;8.07;66.98;94818.50;5114912;27;20031;-76
2022/01/03 10:46:54;;;;;;;27.10;17.20;;;;;;;8.16;66.68;94817.00;5098460;27;20042;-72
2022/01/03 10:49:20;;;;;;;25.63;15.90;;;;;;;7.91;66.42;94815.38;5116624;27;20024;-72
2022/01/03 10:51:46;;;;;;;22.88;15.90;;;;;;;8.07;66.92;94811.56;5128557;27;20057;-72
2022/01/03 10:54:14;;;;;;;27.40;16.10;;;;;;;8.10;67.65;94786.44;5126550;27;20527;-73
2022/01/03 10:56:41;;;;;;;32.85;17.40;;;;;;;8.24;65.98;94796.59;5127332;27;20413;-74
2022/01/03 10:59:15;;;;;;;27.10;16.98;;;;;;;8.29;66.04;94790.13;5110722;28;20077;-75
2022/01/03 11:01:41;;;;;;;31.88;20.02;;;;;;;8.27;67.40;94779.09;5125122;27;20032;-75
2022/01/03 11:04:07;;;;;;;26.58;18.10;;;;;;;8.38;66.76;94786.03;5093784;28;20032;-73
2022/01/03 11:11:44;;;;;;;26.33;16.45;;;;;;;8.56;65.96;94770.09;5096204;28;20055;-75
2022/01/03 11:14:11;;;;;;;20.35;15.13;;;;;;;8.62;65.43;94754.09;5093723;28;20042;-74
2022/01/03 11:16:39;;;;;;;22.13;15.27;;;;;;;8.66;66.07;94753.75;5117737;27;20035;-75
2022/01/03 11:19:05;;;;;;;22.65;16.40;;;;;;;8.69;67.04;94760.44;5093689;28;20055;-75
2022/01/03 11:21:31;;;;;;;21.42;16.63;;;;;;;8.74;65.69;94760.91;5127723;27;20065;-75
2022/01/03 11:24:02;;;;;;;25.85;20.95;;;;;;;8.79;64.97;94753.63;5136436;27;20132;-74
2022/01/03 11:26:33;;;;;;;23.80;17.40;;;;;;;8.76;65.20;94747.88;5130636;27;20027;-75
2022/01/03 11:29:00;;;;;;;22.33;14.30;;;;;;;8.87;65.13;94750.47;5110077;28;20524;-73
2022/01/03 11:31:25;;;;;;;18.77;13.98;;;;;;;8.92;64.99;94733.63;5117524;27;20119;-74
2022/01/03 11:33:51;;;;;;;21.98;14.93;;;;;;;9.01;65.65;94731.25;5096368;27;20407;-72
2022/01/03 11:36:18;;;;;;;18.67;14.55;;;;;;;9.08;65.80;94722.88;5127782;27;20023;-74
2022/01/03 11:38:43;;;;;;;25.88;19.13;;;;;;;9.27;64.91;94724.00;5101271;28;20024;-73
2022/01/03 11:41:09;;;;;;;20.85;15.02;;;;;;;9.44;64.56;94727.84;5108771;27;20019;-75
2022/01/03 11:43:39;;;;;;;22.02;16.38;;;;;;;9.51;63.66;94721.25;5113984;27;20026;-73